STS Fryderyk Chopin — SPS2298 — position and weather

sailwx.info

Track history (hours):
 
Tides and Currents Weather Stations Pressure Air Temp Water Temp Dewpoint Dewpoint Depression Visibility Wind Speed Wind Dir Waves Ship Positions

STS Fryderyk Chopin (Poland)

Ship's website: http://www.fryderykchopin.pl/

Last reported at 2020-Jul-09 12:26 UTC. Time now 2020-Jul-09 21:00 UTC.
Position N 53°46' E 014°24'.

Length 44 m; draft 4 m.

Type: Sailing vessel. MMSI: 261000290.

Date/timePositionNaut miles runAvg speedWind from/ knotsBaromVisibWave heightAir tempDewpointWater temp
2020-Jul-09 12:26N 53°46' E 014°24'4 8.8
2020-Jul-09 12:00N 53°42' E 014°28'5 9.0
2020-Jul-09 11:29N 53°39' E 014°33'9 8.7
2020-Jul-09 10:30N 53°31' E 014°38'6 3.8
2020-Jul-09 08:58N 53°25' E 014°34'0 0.0
2020-Jul-09 08:28N 53°25' E 014°34'0 0.0
2020-Jul-09 06:58N 53°25' E 014°34'0 0.0
2020-Jul-09 05:58N 53°25' E 014°34'0 0.0
2020-Jul-09 02:58N 53°25' E 014°34'0 0.0
2020-Jul-08 21:58N 53°25' E 014°34'0 0.0
2020-Jul-08 20:28N 53°25' E 014°34'0 0.0
2020-Jul-08 17:28N 53°25' E 014°34'0 0.0
2020-Jul-08 16:58N 53°25' E 014°34'0 0.0
2020-Jul-08 15:28N 53°25' E 014°34'0 0.0
2020-Jul-08 13:58N 53°25' E 014°34'0 0.0
2020-Jul-08 13:28N 53°25' E 014°34'0 0.0
2020-Jul-08 12:58N 53°25' E 014°34'0 0.0
2020-Jul-08 12:28N 53°25' E 014°34'0 0.0
2020-Jul-08 10:58N 53°25' E 014°34'0 0.0
2020-Jul-08 05:28N 53°25' E 014°34'0 0.0
2020-Jul-08 02:58N 53°25' E 014°34'0 0.0
2020-Jul-07 22:58N 53°25' E 014°34'0 0.0
2020-Jul-07 21:58N 53°25' E 014°34'0 0.0
2020-Jul-07 20:28N 53°25' E 014°34'0 0.0
2020-Jul-07 18:28N 53°25' E 014°34'0 0.0
2020-Jul-07 15:58N 53°25' E 014°34'0 0.0
2020-Jul-07 14:58N 53°25' E 014°34'0 0.0
2020-Jul-07 13:58N 53°25' E 014°34'0 0.0
2020-Jul-07 12:58N 53°25' E 014°34'0 0.0
2020-Jul-07 11:28N 53°25' E 014°34'0 0.0
2020-Jul-07 10:58N 53°25' E 014°34'0 0.0
2020-Jul-07 07:28N 53°25' E 014°34'0 0.0
2020-Jul-07 05:28N 53°25' E 014°34'0 0.0
2020-Jul-07 04:58N 53°25' E 014°34'0 0.0
2020-Jul-07 03:28N 53°25' E 014°34'0 0.0
2020-Jul-07 02:58N 53°25' E 014°34'0 0.0
2020-Jul-06 23:58N 53°25' E 014°34'0 0.0
2020-Jul-06 22:28N 53°25' E 014°34'0 0.0
2020-Jul-06 18:58N 53°25' E 014°34'0 0.0
2020-Jul-06 18:28N 53°25' E 014°34'0 0.0
2020-Jul-06 17:28N 53°25' E 014°34'0 0.0
2020-Jul-06 16:58N 53°25' E 014°34'0 0.0
2020-Jul-06 11:58N 53°25' E 014°34'0 0.0
2020-Jul-06 10:58N 53°25' E 014°34'0 0.0
2020-Jul-06 09:58N 53°25' E 014°34'0 0.0
2020-Jul-06 09:28N 53°25' E 014°34'0 0.0
2020-Jul-06 08:28N 53°25' E 014°34'0 0.0
2020-Jul-06 07:58N 53°25' E 014°34'1 0.2
2020-Jul-06 04:30N 53°26' E 014°34'0 0.0
2020-Jul-06 03:00N 53°26' E 014°34'0 0.0
2020-Jul-06 02:00N 53°26' E 014°34'0 0.0
2020-Jul-06 01:30N 53°26' E 014°34'0 0.0
2020-Jul-05 22:00N 53°26' E 014°34'0 0.0
2020-Jul-05 20:00N 53°26' E 014°34'0 0.0
2020-Jul-05 16:00N 53°26' E 014°34'0 0.0
2020-Jul-05 15:30N 53°26' E 014°34'0 0.0
2020-Jul-05 12:30N 53°26' E 014°34'0 0.0
2020-Jul-05 10:30N 53°26' E 014°34'0 0.0
2020-Jul-05 05:30N 53°26' E 014°34'0 0.0
2020-Jul-05 04:00N 53°26' E 014°34'0 0.0
2020-Jul-05 03:00N 53°26' E 014°34'0 0.0
2020-Jul-05 02:00N 53°26' E 014°34'0 0.0
2020-Jul-04 22:30N 53°26' E 014°34'0 0.0
2020-Jul-04 20:00N 53°26' E 014°34'0 0.0
2020-Jul-04 19:30N 53°26' E 014°34'0 0.0
2020-Jul-04 18:30N 53°26' E 014°34'0 0.0
2020-Jul-04 12:30N 53°26' E 014°34'0 0.0
2020-Jul-04 11:30N 53°26' E 014°34'0 0.0
2020-Jul-04 03:00N 53°26' E 014°34'0 0.0
2020-Jul-04 02:00N 53°26' E 014°34'0 0.0
2020-Jul-03 21:30N 53°26' E 014°34'0 0.0
2020-Jul-03 21:00N 53°26' E 014°34'0 0.0
2020-Jul-03 18:00N 53°26' E 014°34'0 0.0
2020-Jul-03 16:30N 53°26' E 014°34'0 0.0
2020-Jul-03 16:00N 53°26' E 014°34'0 0.0
2020-Jul-03 15:30N 53°26' E 014°34'0 0.0
2020-Jul-03 14:27N 53°26' E 014°34'0 0.0
2020-Jul-03 14:00N 53°26' E 014°34'0 0.0
2020-Jul-03 13:30N 53°26' E 014°34'0 0.0
2020-Jul-03 10:30N 53°26' E 014°34'0 0.0
2020-Jul-03 10:00N 53°26' E 014°34'0 0.0
2020-Jul-03 09:30N 53°26' E 014°34'0 0.0
2020-Jul-03 09:00N 53°26' E 014°34'0 0.0
2020-Jul-03 08:30N 53°26' E 014°34'0 0.0
2020-Jul-03 06:30N 53°26' E 014°34'0 0.0
2020-Jul-03 04:00N 53°26' E 014°34'0 0.0
2020-Jul-03 03:00N 53°26' E 014°34'0 0.0
2020-Jul-03 02:30N 53°26' E 014°34'0 0.0
2020-Jul-02 20:30N 53°26' E 014°34'0 0.0
2020-Jul-02 19:30N 53°26' E 014°34'0 0.0
2020-Jul-02 18:30N 53°26' E 014°34'0 0.0
2020-Jul-02 16:00N 53°26' E 014°34'0 0.2
2020-Jul-02 14:30N 53°25' E 014°34'0 0.0
2020-Jul-02 11:30N 53°25' E 014°34'0 0.0
2020-Jul-02 11:00N 53°25' E 014°34'0 0.0
2020-Jul-02 10:30N 53°25' E 014°34'0 0.0
2020-Jul-02 09:30N 53°25' E 014°34'0 0.0
2020-Jul-02 09:00N 53°25' E 014°34'0 0.0
2020-Jul-02 06:30N 53°25' E 014°34'0 0.0
2020-Jul-02 04:00N 53°25' E 014°34'0 0.0
2020-Jul-02 03:30N 53°25' E 014°34'0 0.0
2020-Jul-02 02:30N 53°25' E 014°34'0 0.0
2020-Jul-02 01:30N 53°25' E 014°34'0 0.0
2020-Jul-01 23:30N 53°25' E 014°34'0 0.0
2020-Jul-01 18:30N 53°25' E 014°34'0 0.0
2020-Jul-01 16:00N 53°25' E 014°34'0 0.0
2020-Jul-01 13:30N 53°25' E 014°34'0 0.0
2020-Jul-01 05:30N 53°25' E 014°34'0 0.0
2020-Jul-01 04:00N 53°25' E 014°34'0 0.0
2020-Jul-01 02:30N 53°25' E 014°34'0 0.0
2020-Jul-01 00:00N 53°25' E 014°34'0 0.0
2020-Jun-30 21:30N 53°25' E 014°34'0 0.0
2020-Jun-30 18:30N 53°25' E 014°34'0 0.0
2020-Jun-30 18:00N 53°25' E 014°34'0 0.0
2020-Jun-30 17:30N 53°25' E 014°34'0 0.0
2020-Jun-30 16:30N 53°25' E 014°34'0 0.0
2020-Jun-30 15:30N 53°25' E 014°34'0 0.0
2020-Jun-30 14:27N 53°25' E 014°34'0 0.0
2020-Jun-30 13:30N 53°25' E 014°34'0 0.0
2020-Jun-30 12:00N 53°25' E 014°34'0 0.0
2020-Jun-30 07:30N 53°25' E 014°34'0 0.0
2020-Jun-30 06:30N 53°25' E 014°34'0 0.0
2020-Jun-30 03:30N 53°25' E 014°34'0 0.0
2020-Jun-30 02:30N 53°25' E 014°34'0 0.0
2020-Jun-30 00:30N 53°25' E 014°34'0 0.0
2020-Jun-29 23:00N 53°25' E 014°34'0 0.0
2020-Jun-29 22:30N 53°25' E 014°34'0 0.0
2020-Jun-29 21:30N 53°25' E 014°34'0 0.0
2020-Jun-29 16:30N 53°25' E 014°34'0 0.0
2020-Jun-29 16:00N 53°25' E 014°34'0 0.0
2020-Jun-29 14:00N 53°25' E 014°34'0 0.0
2020-Jun-29 13:30N 53°25' E 014°34'  
Track history (hours):
 
Tides and Currents Weather Stations Pressure Air Temp Water Temp Dewpoint Dewpoint Depression Visibility Wind Speed Wind Dir Waves Ship Positions

STS Fryderyk Chopin (Poland)

Ship's website: http://www.fryderykchopin.pl/

Last reported at 2020-Jul-09 12:26 UTC. Time now 2020-Jul-09 21:00 UTC.
Position N 53°46' E 014°24'.

Length 44 m; draft 4 m.

Type: Sailing vessel. MMSI: 261000290.

Date/timePositionNaut miles runAvg speedWind from/ knotsBaromVisibWave heightAir tempDewpointWater temp
2020-Jul-09 12:26N 53°46' E 014°24'4 8.8
2020-Jul-09 12:00N 53°42' E 014°28'5 9.0
2020-Jul-09 11:29N 53°39' E 014°33'9 8.7
2020-Jul-09 10:30N 53°31' E 014°38'6 3.8
2020-Jul-09 08:58N 53°25' E 014°34'0 0.0
2020-Jul-09 08:28N 53°25' E 014°34'0 0.0
2020-Jul-09 06:58N 53°25' E 014°34'0 0.0
2020-Jul-09 05:58N 53°25' E 014°34'0 0.0
2020-Jul-09 02:58N 53°25' E 014°34'0 0.0
2020-Jul-08 21:58N 53°25' E 014°34'0 0.0
2020-Jul-08 20:28N 53°25' E 014°34'0 0.0
2020-Jul-08 17:28N 53°25' E 014°34'0 0.0
2020-Jul-08 16:58N 53°25' E 014°34'0 0.0
2020-Jul-08 15:28N 53°25' E 014°34'0 0.0
2020-Jul-08 13:58N 53°25' E 014°34'0 0.0
2020-Jul-08 13:28N 53°25' E 014°34'0 0.0
2020-Jul-08 12:58N 53°25' E 014°34'0 0.0
2020-Jul-08 12:28N 53°25' E 014°34'0 0.0
2020-Jul-08 10:58N 53°25' E 014°34'0 0.0
2020-Jul-08 05:28N 53°25' E 014°34'0 0.0
2020-Jul-08 02:58N 53°25' E 014°34'0 0.0
2020-Jul-07 22:58N 53°25' E 014°34'0 0.0
2020-Jul-07 21:58N 53°25' E 014°34'0 0.0
2020-Jul-07 20:28N 53°25' E 014°34'0 0.0
2020-Jul-07 18:28N 53°25' E 014°34'0 0.0
2020-Jul-07 15:58N 53°25' E 014°34'0 0.0
2020-Jul-07 14:58N 53°25' E 014°34'0 0.0
2020-Jul-07 13:58N 53°25' E 014°34'0 0.0
2020-Jul-07 12:58N 53°25' E 014°34'0 0.0
2020-Jul-07 11:28N 53°25' E 014°34'0 0.0
2020-Jul-07 10:58N 53°25' E 014°34'0 0.0
2020-Jul-07 07:28N 53°25' E 014°34'0 0.0
2020-Jul-07 05:28N 53°25' E 014°34'0 0.0
2020-Jul-07 04:58N 53°25' E 014°34'0 0.0
2020-Jul-07 03:28N 53°25' E 014°34'0 0.0
2020-Jul-07 02:58N 53°25' E 014°34'0 0.0
2020-Jul-06 23:58N 53°25' E 014°34'0 0.0
2020-Jul-06 22:28N 53°25' E 014°34'0 0.0
2020-Jul-06 18:58N 53°25' E 014°34'0 0.0
2020-Jul-06 18:28N 53°25' E 014°34'0 0.0
2020-Jul-06 17:28N 53°25' E 014°34'0 0.0
2020-Jul-06 16:58N 53°25' E 014°34'0 0.0
2020-Jul-06 11:58N 53°25' E 014°34'0 0.0
2020-Jul-06 10:58N 53°25' E 014°34'0 0.0
2020-Jul-06 09:58N 53°25' E 014°34'0 0.0
2020-Jul-06 09:28N 53°25' E 014°34'0 0.0
2020-Jul-06 08:28N 53°25' E 014°34'0 0.0
2020-Jul-06 07:58N 53°25' E 014°34'1 0.2
2020-Jul-06 04:30N 53°26' E 014°34'0 0.0
2020-Jul-06 03:00N 53°26' E 014°34'0 0.0
2020-Jul-06 02:00N 53°26' E 014°34'0 0.0
2020-Jul-06 01:30N 53°26' E 014°34'0 0.0
2020-Jul-05 22:00N 53°26' E 014°34'0 0.0
2020-Jul-05 20:00N 53°26' E 014°34'0 0.0
2020-Jul-05 16:00N 53°26' E 014°34'0 0.0
2020-Jul-05 15:30N 53°26' E 014°34'0 0.0
2020-Jul-05 12:30N 53°26' E 014°34'0 0.0
2020-Jul-05 10:30N 53°26' E 014°34'0 0.0
2020-Jul-05 05:30N 53°26' E 014°34'0 0.0
2020-Jul-05 04:00N 53°26' E 014°34'0 0.0
2020-Jul-05 03:00N 53°26' E 014°34'0 0.0
2020-Jul-05 02:00N 53°26' E 014°34'0 0.0
2020-Jul-04 22:30N 53°26' E 014°34'0 0.0
2020-Jul-04 20:00N 53°26' E 014°34'0 0.0
2020-Jul-04 19:30N 53°26' E 014°34'0 0.0
2020-Jul-04 18:30N 53°26' E 014°34'0 0.0
2020-Jul-04 12:30N 53°26' E 014°34'0 0.0
2020-Jul-04 11:30N 53°26' E 014°34'0 0.0
2020-Jul-04 03:00N 53°26' E 014°34'0 0.0
2020-Jul-04 02:00N 53°26' E 014°34'0 0.0
2020-Jul-03 21:30N 53°26' E 014°34'0 0.0
2020-Jul-03 21:00N 53°26' E 014°34'0 0.0
2020-Jul-03 18:00N 53°26' E 014°34'0 0.0
2020-Jul-03 16:30N 53°26' E 014°34'0 0.0
2020-Jul-03 16:00N 53°26' E 014°34'0 0.0
2020-Jul-03 15:30N 53°26' E 014°34'0 0.0
2020-Jul-03 14:27N 53°26' E 014°34'0 0.0
2020-Jul-03 14:00N 53°26' E 014°34'0 0.0
2020-Jul-03 13:30N 53°26' E 014°34'0 0.0
2020-Jul-03 10:30N 53°26' E 014°34'0 0.0
2020-Jul-03 10:00N 53°26' E 014°34'0 0.0
2020-Jul-03 09:30N 53°26' E 014°34'0 0.0
2020-Jul-03 09:00N 53°26' E 014°34'0 0.0
2020-Jul-03 08:30N 53°26' E 014°34'0 0.0
2020-Jul-03 06:30N 53°26' E 014°34'0 0.0
2020-Jul-03 04:00N 53°26' E 014°34'0 0.0
2020-Jul-03 03:00N 53°26' E 014°34'0 0.0
2020-Jul-03 02:30N 53°26' E 014°34'0 0.0
2020-Jul-02 20:30N 53°26' E 014°34'0 0.0
2020-Jul-02 19:30N 53°26' E 014°34'0 0.0
2020-Jul-02 18:30N 53°26' E 014°34'0 0.0
2020-Jul-02 16:00N 53°26' E 014°34'0 0.2
2020-Jul-02 14:30N 53°25' E 014°34'0 0.0
2020-Jul-02 11:30N 53°25' E 014°34'0 0.0
2020-Jul-02 11:00N 53°25' E 014°34'0 0.0
2020-Jul-02 10:30N 53°25' E 014°34'0 0.0
2020-Jul-02 09:30N 53°25' E 014°34'0 0.0
2020-Jul-02 09:00N 53°25' E 014°34'0 0.0
2020-Jul-02 06:30N 53°25' E 014°34'0 0.0
2020-Jul-02 04:00N 53°25' E 014°34'0 0.0
2020-Jul-02 03:30N 53°25' E 014°34'0 0.0
2020-Jul-02 02:30N 53°25' E 014°34'0 0.0
2020-Jul-02 01:30N 53°25' E 014°34'0 0.0
2020-Jul-01 23:30N 53°25' E 014°34'0 0.0
2020-Jul-01 18:30N 53°25' E 014°34'0 0.0
2020-Jul-01 16:00N 53°25' E 014°34'0 0.0
2020-Jul-01 13:30N 53°25' E 014°34'0 0.0
2020-Jul-01 05:30N 53°25' E 014°34'0 0.0
2020-Jul-01 04:00N 53°25' E 014°34'0 0.0
2020-Jul-01 02:30N 53°25' E 014°34'0 0.0
2020-Jul-01 00:00N 53°25' E 014°34'0 0.0
2020-Jun-30 21:30N 53°25' E 014°34'0 0.0
2020-Jun-30 18:30N 53°25' E 014°34'0 0.0
2020-Jun-30 18:00N 53°25' E 014°34'0 0.0
2020-Jun-30 17:30N 53°25' E 014°34'0 0.0
2020-Jun-30 16:30N 53°25' E 014°34'0 0.0
2020-Jun-30 15:30N 53°25' E 014°34'0 0.0
2020-Jun-30 14:27N 53°25' E 014°34'0 0.0
2020-Jun-30 13:30N 53°25' E 014°34'0 0.0
2020-Jun-30 12:00N 53°25' E 014°34'0 0.0
2020-Jun-30 07:30N 53°25' E 014°34'0 0.0
2020-Jun-30 06:30N 53°25' E 014°34'0 0.0
2020-Jun-30 03:30N 53°25' E 014°34'0 0.0
2020-Jun-30 02:30N 53°25' E 014°34'0 0.0
2020-Jun-30 00:30N 53°25' E 014°34'0 0.0
2020-Jun-29 23:00N 53°25' E 014°34'0 0.0
2020-Jun-29 22:30N 53°25' E 014°34'0 0.0
2020-Jun-29 21:30N 53°25' E 014°34'0 0.0
2020-Jun-29 16:30N 53°25' E 014°34'0 0.0
2020-Jun-29 16:00N 53°25' E 014°34'0 0.0
2020-Jun-29 14:00N 53°25' E 014°34'0 0.0
2020-Jun-29 13:30N 53°25' E 014°34'  

Dump ship's entire track history